sensor_id;sensor_type;location;lat;lon;timestamp;temperature;humidity
33741;DHT22;20065;48.380;10.892;2023-04-23T00:00:51;15.80;99.90
33741;DHT22;20065;48.380;10.892;2023-04-23T00:03:40;15.80;99.90
33741;DHT22;20065;48.380;10.892;2023-04-23T00:06:28;15.80;99.90
33741;DHT22;20065;48.380;10.892;2023-04-23T00:09:15;15.70;99.90
33741;DHT22;20065;48.380;10.892;2023-04-23T00:12:02;15.80;99.90
33741;DHT22;20065;48.380;10.892;2023-04-23T00:14:48;15.80;99.90
33741;DHT22;20065;48.380;10.892;2023-04-23T00:17:35;15.80;99.90
33741;DHT22;20065;48.380;10.892;2023-04-23T00:20:21;15.70;99.90
33741;DHT22;20065;48.380;10.892;2023-04-23T00:23:08;15.70;99.90
33741;DHT22;20065;48.380;10.892;2023-04-23T00:25:54;15.70;99.90
33741;DHT22;20065;48.380;10.892;2023-04-23T00:28:40;15.70;99.90
33741;DHT22;20065;48.380;10.892;2023-04-23T00:31:26;15.70;99.90
33741;DHT22;20065;48.380;10.892;2023-04-23T00:34:13;15.70;99.90
33741;DHT22;20065;48.380;10.892;2023-04-23T00:36:59;15.70;99.90
33741;DHT22;20065;48.380;10.892;2023-04-23T00:39:45;15.60;99.90
33741;DHT22;20065;48.380;10.892;2023-04-23T00:42:32;15.60;99.90
33741;DHT22;20065;48.380;10.892;2023-04-23T00:45:19;15.60;99.90
33741;DHT22;20065;48.380;10.892;2023-04-23T00:48:06;15.70;99.90
33741;DHT22;20065;48.380;10.892;2023-04-23T00:51:02;15.70;99.90
33741;DHT22;20065;48.380;10.892;2023-04-23T00:53:49;15.70;99.90
33741;DHT22;20065;48.380;10.892;2023-04-23T00:56:35;15.50;99.90
33741;DHT22;20065;48.380;10.892;2023-04-23T00:59:21;15.40;99.90
33741;DHT22;20065;48.380;10.892;2023-04-23T01:02:08;15.40;99.90
33741;DHT22;20065;48.380;10.892;2023-04-23T01:04:55;15.30;99.90
33741;DHT22;20065;48.380;10.892;2023-04-23T01:07:43;15.20;99.90
33741;DHT22;20065;48.380;10.892;2023-04-23T01:10:30;15.10;99.90
33741;DHT22;20065;48.380;10.892;2023-04-23T01:13:17;15.00;99.90
33741;DHT22;20065;48.380;10.892;2023-04-23T01:16:03;15.00;99.90
33741;DHT22;20065;48.380;10.892;2023-04-23T01:18:49;14.90;99.90
33741;DHT22;20065;48.380;10.892;2023-04-23T01:21:37;14.90;99.90
33741;DHT22;20065;48.380;10.892;2023-04-23T01:24:27;14.90;99.90
33741;DHT22;20065;48.380;10.892;2023-04-23T01:27:14;14.80;99.90
33741;DHT22;20065;48.380;10.892;2023-04-23T01:30:04;14.80;99.90
33741;DHT22;20065;48.380;10.892;2023-04-23T01:32:51;14.80;99.90
33741;DHT22;20065;48.380;10.892;2023-04-23T01:35:39;14.90;99.90
33741;DHT22;20065;48.380;10.892;2023-04-23T01:38:27;14.80;99.90
33741;DHT22;20065;48.380;10.892;2023-04-23T01:41:15;14.90;99.90
33741;DHT22;20065;48.380;10.892;2023-04-23T01:44:02;14.90;99.90
33741;DHT22;20065;48.380;10.892;2023-04-23T01:46:48;15.00;99.90
33741;DHT22;20065;48.380;10.892;2023-04-23T01:49:34;15.10;99.90
33741;DHT22;20065;48.380;10.892;2023-04-23T01:52:20;15.20;99.90
33741;DHT22;20065;48.380;10.892;2023-04-23T01:55:07;15.20;99.90
33741;DHT22;20065;48.380;10.892;2023-04-23T01:57:57;15.20;99.90
33741;DHT22;20065;48.380;10.892;2023-04-23T02:00:43;15.20;99.90
33741;DHT22;20065;48.380;10.892;2023-04-23T02:03:29;15.10;99.90
33741;DHT22;20065;48.380;10.892;2023-04-23T02:06:18;15.10;99.90
33741;DHT22;20065;48.380;10.892;2023-04-23T02:09:04;15.10;99.90
33741;DHT22;20065;48.380;10.892;2023-04-23T02:11:50;15.20;99.90
33741;DHT22;20065;48.380;10.892;2023-04-23T02:14:37;15.10;99.90
33741;DHT22;20065;48.380;10.892;2023-04-23T02:17:23;15.00;99.90
33741;DHT22;20065;48.380;10.892;2023-04-23T02:20:09;15.10;99.90
33741;DHT22;20065;48.380;10.892;2023-04-23T02:22:56;15.00;99.90
33741;DHT22;20065;48.380;10.892;2023-04-23T02:25:42;15.00;99.90
33741;DHT22;20065;48.380;10.892;2023-04-23T02:28:28;15.00;99.90
33741;DHT22;20065;48.380;10.892;2023-04-23T02:31:14;15.00;99.90
33741;DHT22;20065;48.380;10.892;2023-04-23T02:34:01;14.90;99.90
33741;DHT22;20065;48.380;10.892;2023-04-23T02:36:47;15.00;99.90
33741;DHT22;20065;48.380;10.892;2023-04-23T02:39:33;15.10;99.90
33741;DHT22;20065;48.380;10.892;2023-04-23T02:42:19;15.10;99.90
33741;DHT22;20065;48.380;10.892;2023-04-23T02:45:07;15.00;99.90
33741;DHT22;20065;48.380;10.892;2023-04-23T02:47:53;14.80;99.90
33741;DHT22;20065;48.380;10.892;2023-04-23T02:50:39;14.70;99.90
33741;DHT22;20065;48.380;10.892;2023-04-23T02:53:26;14.60;99.90
33741;DHT22;20065;48.380;10.892;2023-04-23T02:56:12;14.50;99.90
33741;DHT22;20065;48.380;10.892;2023-04-23T02:58:58;14.50;99.90
33741;DHT22;20065;48.380;10.892;2023-04-23T03:01:44;14.40;99.90
33741;DHT22;20065;48.380;10.892;2023-04-23T03:04:32;14.30;99.90
33741;DHT22;20065;48.380;10.892;2023-04-23T03:07:18;14.30;99.90
33741;DHT22;20065;48.380;10.892;2023-04-23T03:10:04;14.30;99.90
33741;DHT22;20065;48.380;10.892;2023-04-23T03:12:51;14.30;99.90
33741;DHT22;20065;48.380;10.892;2023-04-23T03:15:40;14.40;99.90
33741;DHT22;20065;48.380;10.892;2023-04-23T03:18:27;14.50;99.90
33741;DHT22;20065;48.380;10.892;2023-04-23T03:21:14;14.50;99.90
33741;DHT22;20065;48.380;10.892;2023-04-23T03:24:01;14.30;99.90
33741;DHT22;20065;48.380;10.892;2023-04-23T03:26:47;14.20;99.90
33741;DHT22;20065;48.380;10.892;2023-04-23T03:29:34;14.00;99.90
33741;DHT22;20065;48.380;10.892;2023-04-23T03:32:21;13.90;99.90
33741;DHT22;20065;48.380;10.892;2023-04-23T03:35:07;13.80;99.90
33741;DHT22;20065;48.380;10.892;2023-04-23T03:37:55;13.70;99.90
33741;DHT22;20065;48.380;10.892;2023-04-23T03:40:43;13.70;99.90
33741;DHT22;20065;48.380;10.892;2023-04-23T03:43:31;13.70;99.90
33741;DHT22;20065;48.380;10.892;2023-04-23T03:46:23;13.50;99.90
33741;DHT22;20065;48.380;10.892;2023-04-23T03:49:09;13.60;99.90
33741;DHT22;20065;48.380;10.892;2023-04-23T03:51:56;13.50;99.90
33741;DHT22;20065;48.380;10.892;2023-04-23T03:54:43;13.40;99.90
33741;DHT22;20065;48.380;10.892;2023-04-23T03:57:36;13.40;99.90
33741;DHT22;20065;48.380;10.892;2023-04-23T04:00:38;13.30;99.90
33741;DHT22;20065;48.380;10.892;2023-04-23T04:03:24;13.40;99.90
33741;DHT22;20065;48.380;10.892;2023-04-23T04:06:10;13.20;99.90
33741;DHT22;20065;48.380;10.892;2023-04-23T04:08:56;13.20;99.90
33741;DHT22;20065;48.380;10.892;2023-04-23T04:11:42;13.20;99.90
33741;DHT22;20065;48.380;10.892;2023-04-23T04:14:30;13.20;99.90
33741;DHT22;20065;48.380;10.892;2023-04-23T04:17:16;13.20;99.90
33741;DHT22;20065;48.380;10.892;2023-04-23T04:20:02;13.20;99.90
33741;DHT22;20065;48.380;10.892;2023-04-23T04:22:49;13.20;99.90
33741;DHT22;20065;48.380;10.892;2023-04-23T04:25:35;13.30;99.90
33741;DHT22;20065;48.380;10.892;2023-04-23T04:28:24;13.10;99.90
33741;DHT22;20065;48.380;10.892;2023-04-23T04:31:12;13.10;99.90
33741;DHT22;20065;48.380;10.892;2023-04-23T04:34:00;13.10;99.90
33741;DHT22;20065;48.380;10.892;2023-04-23T04:36:46;12.90;99.90
33741;DHT22;20065;48.380;10.892;2023-04-23T04:39:33;12.80;99.90
33741;DHT22;20065;48.380;10.892;2023-04-23T04:42:19;12.70;99.90
33741;DHT22;20065;48.380;10.892;2023-04-23T04:45:06;12.60;99.90
33741;DHT22;20065;48.380;10.892;2023-04-23T04:47:53;12.60;99.90
33741;DHT22;20065;48.380;10.892;2023-04-23T04:50:39;12.60;99.90
33741;DHT22;20065;48.380;10.892;2023-04-23T04:53:26;12.50;99.90
33741;DHT22;20065;48.380;10.892;2023-04-23T04:56:12;12.50;99.90
33741;DHT22;20065;48.380;10.892;2023-04-23T04:58:58;12.50;99.90
33741;DHT22;20065;48.380;10.892;2023-04-23T05:01:44;12.50;99.90
33741;DHT22;20065;48.380;10.892;2023-04-23T05:04:31;12.50;99.90
33741;DHT22;20065;48.380;10.892;2023-04-23T05:07:17;12.50;99.90
33741;DHT22;20065;48.380;10.892;2023-04-23T05:10:03;12.60;99.90
33741;DHT22;20065;48.380;10.892;2023-04-23T05:12:50;12.60;99.90
33741;DHT22;20065;48.380;10.892;2023-04-23T05:15:36;12.50;99.90
33741;DHT22;20065;48.380;10.892;2023-04-23T05:18:23;12.50;99.90
33741;DHT22;20065;48.380;10.892;2023-04-23T05:21:09;12.50;99.90
33741;DHT22;20065;48.380;10.892;2023-04-23T05:23:56;12.50;99.90
33741;DHT22;20065;48.380;10.892;2023-04-23T05:26:42;12.50;99.90
33741;DHT22;20065;48.380;10.892;2023-04-23T05:29:28;12.50;99.90
33741;DHT22;20065;48.380;10.892;2023-04-23T05:32:14;12.70;99.90
33741;DHT22;20065;48.380;10.892;2023-04-23T05:35:02;12.70;99.90
33741;DHT22;20065;48.380;10.892;2023-04-23T05:37:52;12.80;99.90
33741;DHT22;20065;48.380;10.892;2023-04-23T05:40:38;12.90;99.90
33741;DHT22;20065;48.380;10.892;2023-04-23T05:43:24;13.00;99.90
33741;DHT22;20065;48.380;10.892;2023-04-23T05:46:11;13.10;99.90
33741;DHT22;20065;48.380;10.892;2023-04-23T05:48:57;13.10;99.90
33741;DHT22;20065;48.380;10.892;2023-04-23T05:51:43;12.90;99.90
33741;DHT22;20065;48.380;10.892;2023-04-23T05:54:29;12.90;99.90
33741;DHT22;20065;48.380;10.892;2023-04-23T05:57:15;12.80;99.90
33741;DHT22;20065;48.380;10.892;2023-04-23T06:00:02;12.80;99.90
33741;DHT22;20065;48.380;10.892;2023-04-23T06:02:58;12.70;99.90
33741;DHT22;20065;48.380;10.892;2023-04-23T06:05:44;12.50;99.90
33741;DHT22;20065;48.380;10.892;2023-04-23T06:08:30;12.50;99.90
33741;DHT22;20065;48.380;10.892;2023-04-23T06:11:16;12.50;99.90
33741;DHT22;20065;48.380;10.892;2023-04-23T06:14:04;12.40;99.90
33741;DHT22;20065;48.380;10.892;2023-04-23T06:16:50;12.40;99.90
33741;DHT22;20065;48.380;10.892;2023-04-23T06:19:36;12.40;99.90
33741;DHT22;20065;48.380;10.892;2023-04-23T06:22:22;12.30;99.90
33741;DHT22;20065;48.380;10.892;2023-04-23T06:25:09;12.30;99.90
33741;DHT22;20065;48.380;10.892;2023-04-23T06:27:55;12.40;99.90
33741;DHT22;20065;48.380;10.892;2023-04-23T06:30:45;12.40;99.90
33741;DHT22;20065;48.380;10.892;2023-04-23T06:33:32;12.40;99.90
33741;DHT22;20065;48.380;10.892;2023-04-23T06:36:19;12.40;99.90
33741;DHT22;20065;48.380;10.892;2023-04-23T06:39:06;12.40;99.90
33741;DHT22;20065;48.380;10.892;2023-04-23T06:41:52;12.60;99.90
33741;DHT22;20065;48.380;10.892;2023-04-23T06:44:50;12.80;99.90
33741;DHT22;20065;48.380;10.892;2023-04-23T06:47:36;12.80;99.90
33741;DHT22;20065;48.380;10.892;2023-04-23T06:50:23;12.80;99.90
33741;DHT22;20065;48.380;10.892;2023-04-23T06:53:09;12.70;99.90
33741;DHT22;20065;48.380;10.892;2023-04-23T06:55:55;12.80;99.90
33741;DHT22;20065;48.380;10.892;2023-04-23T06:58:41;12.80;99.90
33741;DHT22;20065;48.380;10.892;2023-04-23T07:01:36;12.70;99.90
33741;DHT22;20065;48.380;10.892;2023-04-23T07:04:22;12.70;99.90
33741;DHT22;20065;48.380;10.892;2023-04-23T07:07:12;12.70;99.90
33741;DHT22;20065;48.380;10.892;2023-04-23T07:09:58;12.70;99.90
33741;DHT22;20065;48.380;10.892;2023-04-23T07:12:44;12.60;99.90
33741;DHT22;20065;48.380;10.892;2023-04-23T07:15:30;12.80;99.90
33741;DHT22;20065;48.380;10.892;2023-04-23T07:18:17;12.90;99.90
33741;DHT22;20065;48.380;10.892;2023-04-23T07:21:03;13.00;99.90
33741;DHT22;20065;48.380;10.892;2023-04-23T07:23:49;13.00;99.90
33741;DHT22;20065;48.380;10.892;2023-04-23T07:26:36;13.10;99.90
33741;DHT22;20065;48.380;10.892;2023-04-23T07:29:22;13.20;99.90
33741;DHT22;20065;48.380;10.892;2023-04-23T07:32:08;13.30;99.90
33741;DHT22;20065;48.380;10.892;2023-04-23T07:34:54;13.40;99.90
33741;DHT22;20065;48.380;10.892;2023-04-23T07:37:43;13.40;99.90
33741;DHT22;20065;48.380;10.892;2023-04-23T07:40:30;13.50;99.90
33741;DHT22;20065;48.380;10.892;2023-04-23T07:43:16;13.50;99.90
33741;DHT22;20065;48.380;10.892;2023-04-23T07:46:06;13.50;99.90
33741;DHT22;20065;48.380;10.892;2023-04-23T07:48:53;13.60;99.90
33741;DHT22;20065;48.380;10.892;2023-04-23T07:51:39;13.40;99.90
33741;DHT22;20065;48.380;10.892;2023-04-23T07:54:26;13.40;99.90
33741;DHT22;20065;48.380;10.892;2023-04-23T07:57:12;13.50;99.90
33741;DHT22;20065;48.380;10.892;2023-04-23T07:59:59;13.50;99.90
33741;DHT22;20065;48.380;10.892;2023-04-23T08:02:49;13.40;99.90
33741;DHT22;20065;48.380;10.892;2023-04-23T08:05:36;13.40;99.90
33741;DHT22;20065;48.380;10.892;2023-04-23T08:08:23;13.50;99.90
33741;DHT22;20065;48.380;10.892;2023-04-23T08:11:10;13.40;99.90
33741;DHT22;20065;48.380;10.892;2023-04-23T08:13:57;13.30;99.90
33741;DHT22;20065;48.380;10.892;2023-04-23T08:16:43;13.30;99.90
33741;DHT22;20065;48.380;10.892;2023-04-23T08:19:29;13.40;99.90
33741;DHT22;20065;48.380;10.892;2023-04-23T08:22:18;13.50;99.90
33741;DHT22;20065;48.380;10.892;2023-04-23T08:25:05;13.70;99.90
33741;DHT22;20065;48.380;10.892;2023-04-23T08:27:51;13.80;99.90
33741;DHT22;20065;48.380;10.892;2023-04-23T08:30:38;13.80;99.90
33741;DHT22;20065;48.380;10.892;2023-04-23T08:33:24;13.80;99.90
33741;DHT22;20065;48.380;10.892;2023-04-23T08:36:10;13.90;99.90
33741;DHT22;20065;48.380;10.892;2023-04-23T08:38:56;13.90;99.90
33741;DHT22;20065;48.380;10.892;2023-04-23T08:41:44;13.90;99.90
33741;DHT22;20065;48.380;10.892;2023-04-23T08:44:32;13.80;99.90
33741;DHT22;20065;48.380;10.892;2023-04-23T08:47:22;13.90;99.90
33741;DHT22;20065;48.380;10.892;2023-04-23T08:50:16;14.00;99.90
33741;DHT22;20065;48.380;10.892;2023-04-23T08:53:03;14.10;99.90
33741;DHT22;20065;48.380;10.892;2023-04-23T08:55:51;14.10;99.90
33741;DHT22;20065;48.380;10.892;2023-04-23T08:58:40;14.20;99.90
33741;DHT22;20065;48.380;10.892;2023-04-23T09:01:40;14.10;99.90
33741;DHT22;20065;48.380;10.892;2023-04-23T09:04:37;14.20;99.90
33741;DHT22;20065;48.380;10.892;2023-04-23T09:07:23;14.30;99.90
33741;DHT22;20065;48.380;10.892;2023-04-23T09:10:19;14.30;99.90
33741;DHT22;20065;48.380;10.892;2023-04-23T09:13:13;14.50;99.90
33741;DHT22;20065;48.380;10.892;2023-04-23T09:16:07;14.70;99.90
33741;DHT22;20065;48.380;10.892;2023-04-23T09:18:58;14.80;99.90
33741;DHT22;20065;48.380;10.892;2023-04-23T09:21:45;14.80;99.90
33741;DHT22;20065;48.380;10.892;2023-04-23T09:24:33;14.90;99.90
33741;DHT22;20065;48.380;10.892;2023-04-23T09:27:23;14.90;99.90
33741;DHT22;20065;48.380;10.892;2023-04-23T09:30:12;15.00;99.90
33741;DHT22;20065;48.380;10.892;2023-04-23T09:32:58;14.70;99.90
33741;DHT22;20065;48.380;10.892;2023-04-23T09:35:45;14.80;99.90
33741;DHT22;20065;48.380;10.892;2023-04-23T09:38:33;14.80;99.90
33741;DHT22;20065;48.380;10.892;2023-04-23T09:41:28;14.80;99.90
33741;DHT22;20065;48.380;10.892;2023-04-23T09:44:20;14.60;99.90
33741;DHT22;20065;48.380;10.892;2023-04-23T09:47:13;14.50;99.90
33741;DHT22;20065;48.380;10.892;2023-04-23T09:50:01;14.50;99.90
33741;DHT22;20065;48.380;10.892;2023-04-23T09:52:53;14.50;99.90
33741;DHT22;20065;48.380;10.892;2023-04-23T09:55:43;14.80;99.90
33741;DHT22;20065;48.380;10.892;2023-04-23T09:58:30;15.00;99.90
33741;DHT22;20065;48.380;10.892;2023-04-23T10:01:16;15.10;99.90
33741;DHT22;20065;48.380;10.892;2023-04-23T10:04:05;15.20;99.90
33741;DHT22;20065;48.380;10.892;2023-04-23T10:06:57;15.20;99.90
33741;DHT22;20065;48.380;10.892;2023-04-23T10:09:43;15.30;99.90
33741;DHT22;20065;48.380;10.892;2023-04-23T10:12:37;15.30;99.90
33741;DHT22;20065;48.380;10.892;2023-04-23T10:15:26;15.40;99.90
33741;DHT22;20065;48.380;10.892;2023-04-23T10:18:13;15.70;99.90
33741;DHT22;20065;48.380;10.892;2023-04-23T10:21:01;15.70;99.90
33741;DHT22;20065;48.380;10.892;2023-04-23T10:23:50;15.90;99.90
33741;DHT22;20065;48.380;10.892;2023-04-23T10:26:38;16.10;99.90
33741;DHT22;20065;48.380;10.892;2023-04-23T10:29:31;16.00;99.90
33741;DHT22;20065;48.380;10.892;2023-04-23T10:32:19;15.70;99.90
33741;DHT22;20065;48.380;10.892;2023-04-23T10:35:07;15.70;99.90
33741;DHT22;20065;48.380;10.892;2023-04-23T10:37:54;15.70;99.90
33741;DHT22;20065;48.380;10.892;2023-04-23T10:40:44;15.90;99.90
33741;DHT22;20065;48.380;10.892;2023-04-23T10:43:32;16.10;99.90
33741;DHT22;20065;48.380;10.892;2023-04-23T10:46:32;16.20;99.90
33741;DHT22;20065;48.380;10.892;2023-04-23T10:49:22;16.40;99.90
33741;DHT22;20065;48.380;10.892;2023-04-23T10:52:15;16.50;99.90
33741;DHT22;20065;48.380;10.892;2023-04-23T10:55:02;16.60;99.90
33741;DHT22;20065;48.380;10.892;2023-04-23T10:58:06;16.60;99.90
33741;DHT22;20065;48.380;10.892;2023-04-23T11:00:52;16.80;99.90
33741;DHT22;20065;48.380;10.892;2023-04-23T11:03:46;17.40;99.90
33741;DHT22;20065;48.380;10.892;2023-04-23T11:09:47;17.00;99.90
33741;DHT22;20065;48.380;10.892;2023-04-23T11:12:34;17.30;99.90
33741;DHT22;20065;48.380;10.892;2023-04-23T11:15:20;17.00;99.90
33741;DHT22;20065;48.380;10.892;2023-04-23T11:18:06;16.90;99.90
33741;DHT22;20065;48.380;10.892;2023-04-23T11:20:55;16.80;99.90
33741;DHT22;20065;48.380;10.892;2023-04-23T11:23:45;17.00;99.90
33741;DHT22;20065;48.380;10.892;2023-04-23T11:26:31;17.00;99.90
33741;DHT22;20065;48.380;10.892;2023-04-23T11:29:33;17.00;99.90
33741;DHT22;20065;48.380;10.892;2023-04-23T11:32:22;17.20;99.90
33741;DHT22;20065;48.380;10.892;2023-04-23T11:35:09;17.30;99.90
33741;DHT22;20065;48.380;10.892;2023-04-23T11:38:09;17.40;99.90
33741;DHT22;20065;48.380;10.892;2023-04-23T11:41:02;17.50;99.90
33741;DHT22;20065;48.380;10.892;2023-04-23T11:43:54;17.20;99.90
33741;DHT22;20065;48.380;10.892;2023-04-23T11:46:48;17.00;99.90
33741;DHT22;20065;48.380;10.892;2023-04-23T11:49:36;17.00;99.90
33741;DHT22;20065;48.380;10.892;2023-04-23T11:52:23;17.10;99.90
33741;DHT22;20065;48.380;10.892;2023-04-23T11:55:09;17.20;99.90
33741;DHT22;20065;48.380;10.892;2023-04-23T11:57:55;17.20;99.90
33741;DHT22;20065;48.380;10.892;2023-04-23T12:00:42;17.10;99.90
33741;DHT22;20065;48.380;10.892;2023-04-23T12:03:29;17.30;99.90
33741;DHT22;20065;48.380;10.892;2023-04-23T12:06:17;17.40;99.90
33741;DHT22;20065;48.380;10.892;2023-04-23T12:09:06;17.60;99.90
33741;DHT22;20065;48.380;10.892;2023-04-23T12:11:53;17.60;99.90
33741;DHT22;20065;48.380;10.892;2023-04-23T12:14:41;17.60;99.90
33741;DHT22;20065;48.380;10.892;2023-04-23T12:17:27;17.30;99.90
33741;DHT22;20065;48.380;10.892;2023-04-23T12:20:20;17.30;99.90
33741;DHT22;20065;48.380;10.892;2023-04-23T12:23:07;17.30;99.90
33741;DHT22;20065;48.380;10.892;2023-04-23T12:25:55;17.40;99.90
33741;DHT22;20065;48.380;10.892;2023-04-23T12:28:52;17.50;99.90
33741;DHT22;20065;48.380;10.892;2023-04-23T12:31:41;17.60;99.90
33741;DHT22;20065;48.380;10.892;2023-04-23T12:34:27;17.50;99.90
33741;DHT22;20065;48.380;10.892;2023-04-23T12:37:14;17.50;99.90
33741;DHT22;20065;48.380;10.892;2023-04-23T12:40:02;17.50;99.90
33741;DHT22;20065;48.380;10.892;2023-04-23T12:42:52;17.50;99.90
33741;DHT22;20065;48.380;10.892;2023-04-23T12:45:38;17.40;99.90
33741;DHT22;20065;48.380;10.892;2023-04-23T12:48:25;17.40;99.90
33741;DHT22;20065;48.380;10.892;2023-04-23T12:51:11;17.40;99.90
33741;DHT22;20065;48.380;10.892;2023-04-23T12:53:58;17.40;99.90
33741;DHT22;20065;48.380;10.892;2023-04-23T12:57:09;17.40;99.90
33741;DHT22;20065;48.380;10.892;2023-04-23T13:00:12;17.50;99.90
33741;DHT22;20065;48.380;10.892;2023-04-23T13:02:58;17.30;99.90
33741;DHT22;20065;48.380;10.892;2023-04-23T13:05:44;17.30;99.90
33741;DHT22;20065;48.380;10.892;2023-04-23T13:08:34;17.40;99.90
33741;DHT22;20065;48.380;10.892;2023-04-23T13:11:21;17.40;99.90
33741;DHT22;20065;48.380;10.892;2023-04-23T13:14:08;17.40;99.90
33741;DHT22;20065;48.380;10.892;2023-04-23T13:16:57;17.40;99.90
33741;DHT22;20065;48.380;10.892;2023-04-23T13:19:44;17.50;99.90
33741;DHT22;20065;48.380;10.892;2023-04-23T13:22:39;17.60;99.90
33741;DHT22;20065;48.380;10.892;2023-04-23T13:25:48;17.70;99.90
33741;DHT22;20065;48.380;10.892;2023-04-23T13:28:35;17.60;99.90
33741;DHT22;20065;48.380;10.892;2023-04-23T13:31:21;17.70;99.90
33741;DHT22;20065;48.380;10.892;2023-04-23T13:34:08;17.80;99.90
33741;DHT22;20065;48.380;10.892;2023-04-23T13:37:01;17.80;99.90
33741;DHT22;20065;48.380;10.892;2023-04-23T13:39:56;18.00;99.90
33741;DHT22;20065;48.380;10.892;2023-04-23T13:42:43;18.00;99.90
33741;DHT22;20065;48.380;10.892;2023-04-23T13:45:39;18.00;99.90
33741;DHT22;20065;48.380;10.892;2023-04-23T13:48:26;17.90;99.90
33741;DHT22;20065;48.380;10.892;2023-04-23T13:51:16;17.90;99.90
33741;DHT22;20065;48.380;10.892;2023-04-23T13:54:03;17.80;99.90
33741;DHT22;20065;48.380;10.892;2023-04-23T13:56:49;17.80;99.90
33741;DHT22;20065;48.380;10.892;2023-04-23T13:59:35;17.80;99.90
33741;DHT22;20065;48.380;10.892;2023-04-23T14:02:23;17.80;99.90
33741;DHT22;20065;48.380;10.892;2023-04-23T14:05:25;17.90;99.90
33741;DHT22;20065;48.380;10.892;2023-04-23T14:08:23;18.00;99.90
33741;DHT22;20065;48.380;10.892;2023-04-23T14:11:10;18.10;99.90
33741;DHT22;20065;48.380;10.892;2023-04-23T14:13:56;18.10;99.90
33741;DHT22;20065;48.380;10.892;2023-04-23T14:16:45;18.20;99.90
33741;DHT22;20065;48.380;10.892;2023-04-23T14:19:31;18.30;99.90
33741;DHT22;20065;48.380;10.892;2023-04-23T14:22:21;18.30;99.90
33741;DHT22;20065;48.380;10.892;2023-04-23T14:25:33;18.30;99.90
33741;DHT22;20065;48.380;10.892;2023-04-23T14:28:28;18.30;99.90
33741;DHT22;20065;48.380;10.892;2023-04-23T14:31:21;18.20;99.90
33741;DHT22;20065;48.380;10.892;2023-04-23T14:34:12;18.20;99.90
33741;DHT22;20065;48.380;10.892;2023-04-23T14:37:02;18.10;99.90
33741;DHT22;20065;48.380;10.892;2023-04-23T14:39:49;18.10;99.90
33741;DHT22;20065;48.380;10.892;2023-04-23T14:42:39;18.10;99.90
33741;DHT22;20065;48.380;10.892;2023-04-23T14:45:26;18.00;99.90
33741;DHT22;20065;48.380;10.892;2023-04-23T14:48:19;18.00;99.90
33741;DHT22;20065;48.380;10.892;2023-04-23T14:51:05;18.00;99.90
33741;DHT22;20065;48.380;10.892;2023-04-23T14:53:52;18.00;99.90
33741;DHT22;20065;48.380;10.892;2023-04-23T14:56:40;18.00;99.90
33741;DHT22;20065;48.380;10.892;2023-04-23T14:59:26;18.00;99.90
33741;DHT22;20065;48.380;10.892;2023-04-23T15:02:13;18.00;99.90
33741;DHT22;20065;48.380;10.892;2023-04-23T15:05:06;17.90;99.90
33741;DHT22;20065;48.380;10.892;2023-04-23T15:08:18;17.90;99.90
33741;DHT22;20065;48.380;10.892;2023-04-23T15:11:06;17.90;99.90
33741;DHT22;20065;48.380;10.892;2023-04-23T15:14:07;17.80;99.90
33741;DHT22;20065;48.380;10.892;2023-04-23T15:16:59;17.90;99.90
33741;DHT22;20065;48.380;10.892;2023-04-23T15:19:45;17.90;99.90
33741;DHT22;20065;48.380;10.892;2023-04-23T15:22:36;17.80;99.90
33741;DHT22;20065;48.380;10.892;2023-04-23T15:25:25;17.90;99.90
33741;DHT22;20065;48.380;10.892;2023-04-23T15:28:16;17.80;99.90
33741;DHT22;20065;48.380;10.892;2023-04-23T15:31:06;17.80;99.90
33741;DHT22;20065;48.380;10.892;2023-04-23T15:33:56;17.80;99.90
33741;DHT22;20065;48.380;10.892;2023-04-23T15:36:43;17.90;99.90
33741;DHT22;20065;48.380;10.892;2023-04-23T15:39:29;17.90;99.90
33741;DHT22;20065;48.380;10.892;2023-04-23T15:42:16;17.90;99.90
33741;DHT22;20065;48.380;10.892;2023-04-23T15:45:03;18.00;99.90
33741;DHT22;20065;48.380;10.892;2023-04-23T15:47:53;18.00;99.90
33741;DHT22;20065;48.380;10.892;2023-04-23T15:50:42;18.00;99.90
33741;DHT22;20065;48.380;10.892;2023-04-23T15:53:29;18.00;99.90
33741;DHT22;20065;48.380;10.892;2023-04-23T15:56:15;17.80;99.90
33741;DHT22;20065;48.380;10.892;2023-04-23T15:59:01;17.40;99.90
33741;DHT22;20065;48.380;10.892;2023-04-23T16:01:51;18.00;99.90
33741;DHT22;20065;48.380;10.892;2023-04-23T16:04:38;18.00;99.90
33741;DHT22;20065;48.380;10.892;2023-04-23T16:07:24;17.90;99.90
33741;DHT22;20065;48.380;10.892;2023-04-23T16:10:11;17.90;99.90
33741;DHT22;20065;48.380;10.892;2023-04-23T16:12:57;18.00;99.90
33741;DHT22;20065;48.380;10.892;2023-04-23T16:15:44;18.00;99.90
33741;DHT22;20065;48.380;10.892;2023-04-23T16:18:33;17.90;99.90
33741;DHT22;20065;48.380;10.892;2023-04-23T16:21:20;17.90;99.90
33741;DHT22;20065;48.380;10.892;2023-04-23T16:24:06;17.90;99.90
33741;DHT22;20065;48.380;10.892;2023-04-23T16:26:57;17.90;99.90
33741;DHT22;20065;48.380;10.892;2023-04-23T16:29:55;17.90;99.90
33741;DHT22;20065;48.380;10.892;2023-04-23T16:32:43;17.80;99.90
33741;DHT22;20065;48.380;10.892;2023-04-23T16:35:31;17.90;99.90
33741;DHT22;20065;48.380;10.892;2023-04-23T16:38:17;18.00;99.90
33741;DHT22;20065;48.380;10.892;2023-04-23T16:41:04;17.80;99.90
33741;DHT22;20065;48.380;10.892;2023-04-23T16:43:50;17.80;99.90
33741;DHT22;20065;48.380;10.892;2023-04-23T16:46:36;17.80;99.90
33741;DHT22;20065;48.380;10.892;2023-04-23T16:49:22;17.80;99.90
33741;DHT22;20065;48.380;10.892;2023-04-23T16:52:08;17.80;99.90
33741;DHT22;20065;48.380;10.892;2023-04-23T16:54:55;17.80;99.90
33741;DHT22;20065;48.380;10.892;2023-04-23T16:57:41;17.70;99.90
33741;DHT22;20065;48.380;10.892;2023-04-23T17:00:27;17.80;99.90
33741;DHT22;20065;48.380;10.892;2023-04-23T17:03:13;17.70;99.90
33741;DHT22;20065;48.380;10.892;2023-04-23T17:06:09;17.70;99.90
33741;DHT22;20065;48.380;10.892;2023-04-23T17:08:57;17.70;99.90
33741;DHT22;20065;48.380;10.892;2023-04-23T17:11:44;17.60;99.90
33741;DHT22;20065;48.380;10.892;2023-04-23T17:14:30;17.50;99.90
33741;DHT22;20065;48.380;10.892;2023-04-23T17:17:16;17.50;99.90
33741;DHT22;20065;48.380;10.892;2023-04-23T17:20:07;17.60;99.90
33741;DHT22;20065;48.380;10.892;2023-04-23T17:22:54;17.60;99.90
33741;DHT22;20065;48.380;10.892;2023-04-23T17:25:43;17.50;99.90
33741;DHT22;20065;48.380;10.892;2023-04-23T17:28:29;17.50;99.90